createdAt,value
2023-01-18T00:02:49.319Z,4.35
2023-01-18T00:05:51.719Z,6.72
2023-01-18T00:08:55.247Z,5.03
2023-01-18T00:11:57.680Z,5.78
2023-01-18T00:15:00.097Z,5.70
2023-01-18T00:18:03.058Z,5.53
2023-01-18T00:21:07.272Z,7.05
2023-01-18T00:24:11.730Z,5.73
2023-01-18T00:27:14.261Z,4.20
2023-01-18T00:30:18.068Z,6.05
2023-01-18T00:33:20.714Z,3.95
2023-01-18T00:36:23.178Z,4.63
2023-01-18T00:39:25.620Z,5.30
2023-01-18T00:42:46.295Z,6.32
2023-01-18T00:45:48.804Z,5.47
2023-01-18T00:48:52.348Z,3.80
2023-01-18T00:51:56.781Z,5.53
2023-01-18T00:55:04.248Z,4.17
2023-01-18T00:58:06.661Z,5.05
2023-01-18T01:01:10.167Z,3.83
2023-01-18T01:04:30.997Z,4.20
2023-01-18T01:07:33.383Z,6.28
2023-01-18T01:10:36.075Z,3.87
2023-01-18T01:13:57.613Z,7.60
2023-01-18T01:17:18.599Z,4.50
2023-01-18T01:20:40.576Z,6.53
2023-01-18T01:24:01.328Z,5.80
2023-01-18T01:27:03.751Z,4.17
2023-01-18T01:30:07.574Z,4.72
2023-01-18T01:33:09.965Z,5.10
2023-01-18T01:36:17.540Z,6.07
2023-01-18T01:39:19.962Z,4.70
2023-01-18T01:42:22.370Z,6.00
2023-01-18T01:45:26.804Z,3.72
2023-01-18T01:48:29.396Z,3.78
2023-01-18T01:51:32.826Z,8.98
2023-01-18T01:54:42.849Z,5.65
2023-01-18T01:57:53.390Z,4.63
2023-01-18T02:00:55.953Z,6.20
2023-01-18T02:04:00.506Z,5.50
2023-01-18T02:07:02.956Z,4.97
2023-01-18T02:10:06.332Z,5.63
2023-01-18T02:13:10.072Z,4.80
2023-01-18T02:16:24.842Z,5.25
2023-01-18T02:19:59.412Z,4.70
2023-01-18T02:23:32.235Z,5.45
2023-01-18T02:26:59.529Z,5.55
2023-01-18T02:30:16.898Z,5.43
2023-01-18T02:33:51.728Z,3.35
2023-01-18T02:37:04.378Z,5.82
2023-01-18T02:40:16.174Z,2.70
2023-01-18T02:43:37.978Z,3.60
2023-01-18T02:46:40.815Z,6.20
2023-01-18T02:49:43.704Z,3.65
2023-01-18T02:52:53.615Z,4.32
2023-01-18T02:56:00.300Z,5.47
2023-01-18T02:59:10.396Z,4.07
2023-01-18T03:02:21.319Z,3.50
2023-01-18T03:05:24.784Z,4.00
2023-01-18T03:08:30.314Z,4.15
2023-01-18T03:12:05.616Z,5.85
2023-01-18T03:15:13.080Z,2.95
2023-01-18T03:18:15.583Z,6.43
2023-01-18T03:21:18.050Z,3.88
2023-01-18T03:24:20.532Z,3.72
2023-01-18T03:27:41.399Z,4.22
2023-01-18T03:31:03.496Z,3.70
2023-01-18T03:34:24.314Z,3.97
2023-01-18T03:37:30.579Z,3.22
2023-01-18T03:40:33.208Z,3.72
2023-01-18T03:43:37.895Z,5.03
2023-01-18T03:46:40.803Z,3.05
2023-01-18T03:49:43.246Z,5.03
2023-01-18T03:52:48.904Z,3.72
2023-01-18T03:55:53.878Z,4.88
2023-01-18T03:58:58.206Z,5.13
2023-01-18T04:02:01.559Z,5.57
2023-01-18T04:05:05.943Z,2.60
2023-01-18T04:08:08.381Z,5.53
2023-01-18T04:11:10.892Z,4.40
2023-01-18T04:14:13.262Z,5.47
2023-01-18T04:17:15.877Z,7.38
2023-01-18T04:20:18.457Z,6.40
2023-01-18T04:23:20.953Z,5.45
2023-01-18T04:26:23.358Z,5.00
2023-01-18T04:29:25.810Z,4.45
2023-01-18T04:32:28.978Z,7.18
2023-01-18T04:35:31.326Z,7.23
2023-01-18T04:38:33.863Z,6.00
2023-01-18T04:41:36.285Z,6.93
2023-01-18T04:44:38.720Z,7.40
2023-01-18T04:47:41.144Z,9.38
2023-01-18T04:50:46.519Z,5.87
2023-01-18T04:53:48.917Z,7.20
2023-01-18T04:56:51.902Z,7.05
2023-01-18T04:59:54.310Z,10.00
2023-01-18T05:02:57.217Z,7.43
2023-01-18T05:05:59.759Z,6.63
2023-01-18T05:09:02.197Z,5.70
2023-01-18T05:12:04.637Z,8.52
2023-01-18T05:15:07.709Z,13.40
2023-01-18T05:18:10.185Z,11.02
2023-01-18T05:21:13.391Z,23.07
2023-01-18T05:24:15.916Z,16.20
2023-01-18T05:27:18.482Z,9.98
2023-01-18T05:30:21.070Z,9.88
2023-01-18T05:33:23.469Z,7.88
2023-01-18T05:36:25.937Z,9.00
2023-01-18T05:39:28.641Z,10.45
2023-01-18T05:42:31.087Z,9.57
2023-01-18T05:45:33.536Z,12.02
2023-01-18T05:48:36.131Z,8.10
2023-01-18T05:51:38.705Z,10.33
2023-01-18T05:54:41.071Z,6.85
2023-01-18T05:57:43.507Z,8.57
2023-01-18T06:00:45.954Z,9.93
2023-01-18T06:03:48.394Z,9.00
2023-01-18T06:06:50.834Z,9.03
2023-01-18T06:09:53.275Z,8.88
2023-01-18T06:12:56.152Z,10.35
2023-01-18T06:16:00.047Z,11.32
2023-01-18T06:19:02.709Z,8.15
2023-01-18T06:22:05.123Z,9.57
2023-01-18T06:25:09.946Z,25.58
2023-01-18T06:28:12.408Z,33.10
2023-01-18T06:31:15.220Z,28.35
2023-01-18T06:34:18.044Z,28.48
2023-01-18T06:37:20.485Z,15.60
2023-01-18T06:40:22.868Z,14.90
2023-01-18T06:43:25.316Z,16.77
2023-01-18T06:46:27.955Z,13.77
2023-01-18T06:49:31.146Z,13.50
2023-01-18T06:52:33.590Z,14.83
2023-01-18T06:55:36.041Z,13.13
2023-01-18T06:58:38.559Z,13.43
2023-01-18T07:01:41.515Z,12.57
2023-01-18T07:04:45.498Z,14.68
2023-01-18T07:07:47.951Z,13.83
2023-01-18T07:10:52.664Z,9.95
2023-01-18T07:13:55.370Z,13.25
2023-01-18T07:16:57.917Z,13.15
2023-01-18T07:20:00.407Z,11.65
2023-01-18T07:23:04.429Z,10.13
2023-01-18T07:26:11.060Z,14.00
2023-01-18T07:29:13.508Z,13.20
2023-01-18T07:32:16.361Z,11.90
2023-01-18T07:35:22.113Z,14.30
2023-01-18T07:38:25.336Z,14.00
2023-01-18T07:41:29.465Z,8.70
2023-01-18T07:44:32.809Z,9.75
2023-01-18T07:47:36.894Z,10.48
2023-01-18T07:50:39.729Z,6.93
2023-01-18T07:53:42.568Z,8.83
2023-01-18T07:56:45.855Z,6.47
2023-01-18T07:59:49.409Z,9.73
2023-01-18T08:02:53.643Z,8.30
2023-01-18T08:05:59.046Z,4.03
2023-01-18T08:09:01.687Z,3.93
2023-01-18T08:12:06.771Z,3.05
2023-01-18T08:15:09.693Z,3.15
2023-01-18T08:18:12.973Z,6.07
2023-01-18T08:21:16.106Z,2.90
2023-01-18T08:24:19.487Z,2.97
2023-01-18T08:27:22.605Z,7.32
2023-01-18T08:30:28.110Z,3.03
2023-01-18T08:33:30.666Z,1.70
2023-01-18T08:36:33.292Z,2.42
2023-01-18T08:39:37.692Z,2.30
2023-01-18T08:42:40.145Z,1.65
2023-01-18T08:45:42.618Z,2.22
2023-01-18T08:48:45.500Z,2.47
2023-01-18T08:51:48.199Z,2.08
2023-01-18T08:54:50.776Z,2.63
2023-01-18T08:57:57.819Z,4.25
2023-01-18T09:01:00.406Z,3.35
2023-01-18T09:04:02.877Z,1.80
2023-01-18T09:07:05.421Z,2.63
2023-01-18T09:10:09.129Z,4.33
2023-01-18T09:13:11.911Z,1.60
2023-01-18T09:16:14.607Z,11.05
2023-01-18T09:19:17.126Z,9.65
2023-01-18T09:22:19.688Z,16.70
2023-01-18T09:25:22.776Z,8.67
2023-01-18T09:28:25.327Z,12.20
2023-01-18T09:31:28.690Z,2.17
2023-01-18T09:34:31.184Z,1.30
2023-01-18T09:37:33.765Z,2.33
2023-01-18T09:40:44.149Z,3.70
2023-01-18T09:43:52.576Z,1.73
2023-01-18T09:47:10.955Z,1.25
2023-01-18T09:50:17.730Z,1.15
2023-01-18T09:53:28.414Z,2.17
2023-01-18T09:56:50.228Z,0.40
2023-01-18T09:59:59.994Z,0.45
2023-01-18T10:03:10.250Z,0.70
2023-01-18T10:06:18.237Z,2.70
2023-01-18T10:09:30.188Z,1.02
2023-01-18T10:12:55.957Z,1.40
2023-01-18T10:15:58.793Z,1.27
2023-01-18T10:19:01.704Z,0.85
2023-01-18T10:22:25.636Z,1.80
2023-01-18T10:25:35.017Z,1.77
2023-01-18T10:28:55.362Z,0.67
2023-01-18T10:32:01.980Z,0.90
2023-01-18T10:35:45.309Z,1.83
2023-01-18T10:38:48.233Z,1.33
2023-01-18T10:41:51.433Z,1.42
2023-01-18T10:44:53.819Z,0.43
2023-01-18T10:47:57.914Z,1.65
2023-01-18T10:51:02.875Z,4.38
2023-01-18T10:54:27.302Z,3.25
2023-01-18T10:57:31.933Z,12.18
2023-01-18T11:00:35.434Z,1.63
2023-01-18T11:03:45.506Z,1.55
2023-01-18T11:06:53.880Z,1.27
2023-01-18T11:10:01.615Z,1.48
2023-01-18T11:13:12.159Z,1.20
2023-01-18T11:16:19.290Z,8.87
2023-01-18T11:19:22.489Z,1.10
2023-01-18T11:22:24.962Z,2.15
2023-01-18T11:25:36.642Z,0.75
2023-01-18T11:28:56.585Z,1.38
2023-01-18T11:32:06.013Z,2.53
2023-01-18T11:35:09.700Z,2.55
2023-01-18T11:38:21.238Z,3.22
2023-01-18T11:41:23.708Z,1.42
2023-01-18T11:44:29.883Z,4.43
2023-01-18T11:47:40.640Z,1.63
2023-01-18T11:50:47.329Z,2.85
2023-01-18T11:53:59.708Z,0.95
2023-01-18T11:57:03.180Z,1.80
2023-01-18T12:00:13.698Z,1.55
2023-01-18T12:03:22.405Z,2.00
2023-01-18T12:06:30.728Z,2.45
2023-01-18T12:09:55.235Z,8.30
2023-01-18T12:13:22.811Z,3.78
2023-01-18T12:16:42.740Z,2.13
2023-01-18T12:20:10.121Z,1.63
2023-01-18T12:23:50.027Z,1.25
2023-01-18T12:26:53.797Z,4.25
2023-01-18T12:30:14.353Z,3.20
2023-01-18T12:33:45.681Z,2.47
2023-01-18T12:37:20.183Z,1.50
2023-01-18T12:40:37.947Z,3.30
2023-01-18T12:43:57.616Z,1.42
2023-01-18T12:47:07.767Z,1.85
2023-01-18T12:50:23.271Z,3.47
2023-01-18T12:54:26.955Z,4.23
2023-01-18T12:57:29.999Z,2.88
2023-01-18T13:00:38.662Z,2.75
2023-01-18T13:03:44.864Z,3.13
2023-01-18T13:06:50.738Z,2.90
2023-01-18T13:09:53.960Z,2.30
2023-01-18T13:12:57.403Z,3.95
2023-01-18T13:16:09.918Z,6.93
2023-01-18T13:19:23.260Z,7.95
2023-01-18T13:22:50.474Z,4.38
2023-01-18T13:26:01.982Z,3.23
2023-01-18T13:29:14.542Z,3.50
2023-01-18T13:32:37.642Z,1.38
2023-01-18T13:35:58.687Z,4.30
2023-01-18T13:39:06.951Z,1.58
2023-01-18T13:42:24.638Z,0.87
2023-01-18T13:45:30.561Z,2.85
2023-01-18T13:48:48.056Z,2.22
2023-01-18T13:51:52.230Z,2.65
2023-01-18T13:54:54.960Z,4.45
2023-01-18T13:57:58.291Z,2.00
2023-01-18T14:01:05.954Z,2.28
2023-01-18T14:04:29.642Z,1.35
2023-01-18T14:07:39.047Z,2.67
2023-01-18T14:10:47.353Z,1.60
2023-01-18T14:13:55.559Z,1.60
2023-01-18T14:17:00.738Z,1.40
2023-01-18T14:20:37.062Z,2.78
2023-01-18T14:24:01.427Z,1.95
2023-01-18T14:27:04.997Z,2.10
2023-01-18T14:30:14.149Z,3.20
2023-01-18T14:33:16.505Z,2.88
2023-01-18T14:36:21.617Z,2.10
2023-01-18T14:39:24.394Z,1.75
2023-01-18T14:42:27.305Z,2.00
2023-01-18T14:45:37.769Z,3.07
2023-01-18T14:48:51.662Z,3.45
2023-01-18T14:51:54.658Z,3.92
2023-01-18T14:54:57.115Z,2.10
2023-01-18T14:58:14.159Z,1.38
2023-01-18T15:01:31.864Z,1.90
2023-01-18T15:04:38.821Z,2.67
2023-01-18T15:07:41.510Z,3.05
2023-01-18T15:10:44.357Z,1.38
2023-01-18T15:13:50.298Z,1.65
2023-01-18T15:16:54.625Z,2.27
2023-01-18T15:19:59.739Z,1.90
2023-01-18T15:23:02.444Z,2.40
2023-01-18T15:26:06.286Z,4.32
2023-01-18T15:29:14.598Z,3.47
2023-01-18T15:32:22.216Z,2.23
2023-01-18T15:38:35.733Z,1.95
2023-01-18T15:41:39.491Z,3.97
2023-01-18T15:44:50.574Z,4.07
2023-01-18T15:47:59.909Z,2.87
2023-01-18T15:51:07.792Z,1.40
2023-01-18T15:54:16.547Z,3.10
2023-01-18T15:57:19.780Z,1.88
2023-01-18T16:00:27.890Z,2.60
2023-01-18T16:04:00.949Z,1.23
2023-01-18T16:07:26.286Z,2.53
2023-01-18T16:10:30.440Z,11.80
2023-01-18T16:13:36.261Z,12.00
2023-01-18T16:16:42.260Z,10.90
2023-01-18T16:19:47.564Z,8.13
2023-01-18T16:22:53.664Z,11.30
2023-01-18T16:26:03.867Z,10.35
2023-01-18T16:29:08.188Z,7.88
2023-01-18T16:32:22.948Z,8.43
2023-01-18T16:35:25.658Z,8.07
2023-01-18T16:38:28.244Z,4.68
2023-01-18T16:41:32.304Z,4.93
2023-01-18T16:44:36.153Z,6.07
2023-01-18T16:47:38.850Z,6.72
2023-01-18T16:50:42.716Z,5.13
2023-01-18T16:53:45.761Z,7.50
2023-01-18T16:56:48.917Z,13.93
2023-01-18T16:59:51.409Z,16.13
2023-01-18T17:02:53.945Z,9.07
2023-01-18T17:05:56.540Z,7.83
2023-01-18T17:08:58.950Z,9.93
2023-01-18T17:12:01.378Z,12.00
2023-01-18T17:15:04.105Z,13.77
2023-01-18T17:18:08.360Z,18.98
2023-01-18T17:21:11.985Z,17.43
2023-01-18T17:24:15.197Z,14.82
2023-01-18T17:27:18.906Z,13.18
2023-01-18T17:30:22.171Z,19.88
2023-01-18T17:33:25.486Z,70.72
2023-01-18T17:36:28.072Z,34.33
2023-01-18T17:39:43.840Z,20.35
2023-01-18T17:42:52.908Z,20.00
2023-01-18T17:46:01.451Z,36.55
2023-01-18T17:49:04.568Z,111.60
2023-01-18T17:52:07.646Z,36.13
2023-01-18T17:55:12.163Z,27.55
2023-01-18T17:58:14.918Z,26.15
2023-01-18T18:01:17.766Z,33.42
2023-01-18T18:04:20.461Z,32.80
2023-01-18T18:07:22.906Z,45.60
2023-01-18T18:10:25.323Z,44.40
2023-01-18T18:13:29.562Z,54.63
2023-01-18T18:16:34.442Z,39.05
2023-01-18T18:19:41.370Z,45.63
2023-01-18T18:22:44.344Z,45.63
2023-01-18T18:25:48.101Z,31.33
2023-01-18T18:28:50.582Z,29.25
2023-01-18T18:31:53.397Z,23.08
2023-01-18T18:34:56.002Z,23.70
2023-01-18T18:44:38.703Z,17.10
2023-01-18T18:47:41.545Z,43.35
2023-01-18T18:50:44.048Z,47.30
2023-01-18T18:53:46.478Z,59.70
2023-01-18T18:56:49.122Z,21.75
2023-01-18T18:59:51.518Z,26.38
2023-01-18T19:02:59.013Z,49.97
2023-01-18T19:06:01.865Z,39.83
2023-01-18T19:09:05.706Z,173.07
2023-01-18T19:12:08.670Z,53.53
2023-01-18T19:15:11.571Z,20.48
2023-01-18T19:18:14.883Z,20.05
2023-01-18T19:21:18.447Z,28.42
2023-01-18T19:24:21.567Z,17.20
2023-01-18T19:27:24.664Z,19.10
2023-01-18T19:30:27.665Z,20.05
2023-01-18T19:33:30.436Z,20.17
2023-01-18T19:36:34.064Z,18.95
2023-01-18T19:39:36.796Z,16.33
2023-01-18T19:42:39.991Z,21.95
2023-01-18T19:45:42.704Z,44.47
2023-01-18T19:48:46.852Z,31.25
2023-01-18T19:51:51.770Z,23.52
2023-01-18T19:54:54.587Z,23.67
2023-01-18T19:57:58.265Z,22.48
2023-01-18T20:01:10.597Z,24.73
2023-01-18T20:04:13.760Z,26.13
2023-01-18T20:07:16.710Z,26.55
2023-01-18T20:10:20.386Z,25.93
2023-01-18T20:13:23.345Z,23.67
2023-01-18T20:16:26.141Z,19.38
2023-01-18T20:19:28.563Z,22.00
2023-01-18T20:22:31.544Z,17.95
2023-01-18T20:25:34.172Z,17.70
2023-01-18T20:28:37.278Z,35.60
2023-01-18T20:31:41.058Z,35.20
2023-01-18T20:34:47.012Z,24.80
2023-01-18T20:37:50.126Z,24.13
2023-01-18T20:40:54.698Z,23.20
2023-01-18T20:43:58.124Z,26.40
2023-01-18T20:47:00.811Z,17.88
2023-01-18T20:50:04.646Z,32.92
2023-01-18T20:53:08.002Z,32.28
2023-01-18T20:56:27.893Z,20.07
2023-01-18T20:59:31.820Z,26.10
2023-01-18T21:02:34.430Z,27.30
2023-01-18T21:05:37.138Z,20.45
2023-01-18T21:08:39.983Z,26.00
2023-01-18T21:11:42.717Z,21.37
2023-01-18T21:14:46.389Z,17.52
2023-01-18T21:17:48.866Z,15.68
2023-01-18T21:20:56.142Z,13.80
2023-01-18T21:23:59.407Z,24.20
2023-01-18T21:27:01.758Z,19.00
2023-01-18T21:30:04.511Z,12.77
2023-01-18T21:33:09.886Z,11.15
2023-01-18T21:36:15.055Z,9.38
2023-01-18T21:39:25.228Z,12.65
2023-01-18T21:42:47.197Z,10.80
2023-01-18T21:45:55.513Z,13.52
2023-01-18T21:49:02.750Z,13.63
2023-01-18T21:52:24.125Z,17.60
2023-01-18T21:55:26.584Z,10.85
2023-01-18T21:58:47.280Z,14.20
2023-01-18T22:01:49.987Z,11.38
2023-01-18T22:05:03.539Z,15.27
2023-01-18T22:08:06.074Z,13.90
2023-01-18T22:11:08.483Z,14.93
2023-01-18T22:14:11.360Z,12.73
2023-01-18T22:17:13.918Z,15.20
2023-01-18T22:20:17.075Z,12.57
2023-01-18T22:23:19.470Z,17.35
2023-01-18T22:26:23.307Z,13.27
2023-01-18T22:29:25.699Z,19.03
2023-01-18T22:32:28.120Z,13.45
2023-01-18T22:35:31.463Z,15.35
2023-01-18T22:38:33.981Z,12.07
2023-01-18T22:41:36.425Z,13.02
2023-01-18T22:44:38.816Z,12.17
2023-01-18T22:47:41.244Z,15.27
2023-01-18T22:50:44.358Z,14.82
2023-01-18T22:53:47.984Z,11.80
2023-01-18T22:56:50.458Z,11.82
2023-01-18T22:59:52.877Z,15.60
2023-01-18T23:02:55.328Z,11.52
2023-01-18T23:05:59.449Z,13.30
2023-01-18T23:09:01.970Z,11.73
2023-01-18T23:12:04.703Z,13.38
2023-01-18T23:15:25.940Z,14.23
2023-01-18T23:18:28.724Z,11.88
2023-01-18T23:21:31.167Z,20.55
2023-01-18T23:24:37.424Z,15.63
2023-01-18T23:27:39.884Z,14.52
2023-01-18T23:30:42.271Z,15.60
2023-01-18T23:33:45.071Z,11.00
2023-01-18T23:36:47.492Z,10.25
2023-01-18T23:40:08.647Z,12.18
2023-01-18T23:43:29.644Z,15.68
2023-01-18T23:46:50.474Z,15.20
2023-01-18T23:50:11.565Z,12.77
2023-01-18T23:53:32.485Z,8.43
2023-01-18T23:56:35.030Z,10.13
2023-01-18T23:59:37.788Z,12.50
